createdAt,value
2022-09-12T00:10:36.126Z,13.4
2022-09-12T00:11:39.493Z,13.3
2022-09-12T00:13:43.422Z,13.3
2022-09-12T00:15:47.367Z,13.3
2022-09-12T00:17:51.299Z,13.3
2022-09-12T00:19:58.083Z,13.2
2022-09-12T00:24:05.920Z,13.3
2022-09-12T00:34:28.999Z,13.1
2022-09-12T00:36:33.105Z,13.1
2022-09-12T00:38:36.867Z,13.2
2022-09-12T00:40:40.792Z,13.2
2022-09-12T00:42:44.717Z,13.1
2022-09-12T00:44:48.639Z,13
2022-09-12T00:46:52.695Z,13
2022-09-12T00:48:59.320Z,13
2022-09-12T00:51:03.236Z,13
2022-09-12T00:53:07.163Z,13
2022-09-12T00:55:11.105Z,12.9
2022-09-12T00:57:15.030Z,13
2022-09-12T00:59:18.971Z,13
2022-09-12T01:08:40.855Z,12.9
2022-09-12T01:10:44.788Z,12.9
2022-09-12T01:12:48.699Z,12.9
2022-09-12T01:19:03.303Z,12.9
2022-09-12T01:21:07.254Z,12.9
2022-09-12T01:23:11.173Z,13
2022-09-12T01:25:15.112Z,13
2022-09-12T01:27:19.026Z,13
2022-09-12T01:29:22.932Z,12.9
2022-09-12T01:31:29.693Z,12.8
2022-09-12T01:33:33.606Z,12.8
2022-09-12T01:35:37.553Z,12.8
2022-09-12T01:37:41.459Z,12.8
2022-09-12T01:39:45.454Z,12.9
2022-09-12T01:41:49.337Z,13
2022-09-12T01:43:53.262Z,13
2022-09-12T01:46:00.065Z,12.9
2022-09-12T01:48:03.931Z,12.9
2022-09-12T01:50:07.833Z,12.8
2022-09-12T01:54:15.671Z,12.8
2022-09-12T01:56:19.607Z,12.8
2022-09-12T01:58:23.536Z,12.8
2022-09-12T02:00:30.309Z,12.7
2022-09-12T02:02:34.210Z,12.7
2022-09-12T02:07:07.817Z,12.6
2022-09-12T02:09:11.738Z,12.5
2022-09-12T02:11:15.652Z,12.6
2022-09-12T02:13:22.385Z,12.7
2022-09-12T02:15:26.314Z,12.7
2022-09-12T02:17:30.236Z,12.8
2022-09-12T02:19:34.155Z,12.8
2022-09-12T02:21:38.087Z,12.9
2022-09-12T02:23:42.010Z,12.9
2022-09-12T02:25:47.435Z,12.9
2022-09-12T02:29:58.054Z,12.6
2022-09-12T02:32:02.035Z,12.6
2022-09-12T02:34:05.978Z,12.5
2022-09-12T02:36:09.882Z,12.5
2022-09-12T02:38:13.799Z,12.4
2022-09-12T02:42:24.490Z,12.2
2022-09-12T02:48:36.238Z,12.2
2022-09-12T02:52:44.083Z,12.1
2022-09-12T02:54:47.993Z,12.1
2022-09-12T02:56:54.710Z,12.1
2022-09-12T02:58:58.630Z,12.1
2022-09-12T03:02:05.999Z,12
2022-09-12T03:04:09.858Z,12
2022-09-12T03:06:13.754Z,11.9
2022-09-12T03:08:17.684Z,12
2022-09-12T03:10:24.515Z,12.1
2022-09-12T03:12:28.439Z,12.1
2022-09-12T03:14:32.361Z,12.1
2022-09-12T03:16:36.311Z,12
2022-09-12T03:18:40.205Z,12.1
2022-09-12T03:20:44.118Z,12.1
2022-09-12T03:22:51.006Z,12.2
2022-09-12T03:24:54.760Z,12.2
2022-09-12T03:31:06.581Z,12
2022-09-12T03:33:10.453Z,11.9
2022-09-12T03:35:14.360Z,11.9
2022-09-12T03:37:18.297Z,11.9
2022-09-12T03:39:25.022Z,11.8
2022-09-12T03:41:28.941Z,11.9
2022-09-12T03:43:32.929Z,11.8
2022-09-12T03:45:36.898Z,11.9
2022-09-12T03:49:44.652Z,11.8
2022-09-12T03:51:48.566Z,11.8
2022-09-12T03:59:06.488Z,12.1
2022-09-12T04:03:14.311Z,12.2
2022-09-12T04:05:18.248Z,12.2
2022-09-12T04:07:24.954Z,12.2
2022-09-12T04:09:28.857Z,12.2
2022-09-12T04:11:32.781Z,12.2
2022-09-12T04:13:36.678Z,12.2
2022-09-12T04:15:40.607Z,12.2
2022-09-12T04:17:44.514Z,12.3
2022-09-12T04:19:48.438Z,12.3
2022-09-12T04:21:55.160Z,12.2
2022-09-12T04:23:59.075Z,12.2
2022-09-12T04:26:02.989Z,12.1
2022-09-12T04:28:06.906Z,12.1
2022-09-12T04:30:10.820Z,12
2022-09-12T04:32:14.746Z,12.1
2022-09-12T04:36:25.402Z,12.1
2022-09-12T04:38:29.326Z,12.1
2022-09-12T04:40:33.240Z,12.1
2022-09-12T04:42:37.155Z,12.1
2022-09-12T04:44:41.072Z,12.1
2022-09-12T04:46:44.987Z,12
2022-09-12T04:48:52.208Z,12
2022-09-12T04:50:55.633Z,11.9
2022-09-12T04:52:59.555Z,11.9
2022-09-12T04:55:03.462Z,11.9
2022-09-12T04:58:10.849Z,11.9
2022-09-12T05:00:14.765Z,11.9
2022-09-12T05:02:18.705Z,11.9
2022-09-12T05:04:25.414Z,12
2022-09-12T05:06:29.309Z,12
2022-09-12T05:08:33.240Z,12
2022-09-12T05:10:37.168Z,11.9
2022-09-12T05:12:41.068Z,12
2022-09-12T05:14:45.226Z,12.1
2022-09-12T05:16:49.599Z,12.2
2022-09-12T05:18:55.623Z,12.2
2022-09-12T05:20:59.518Z,12.3
2022-09-12T05:23:03.443Z,12.3
2022-09-12T05:25:07.373Z,12.2
2022-09-12T05:27:11.305Z,12.2
2022-09-12T05:29:15.206Z,12.2
2022-09-12T05:31:19.143Z,12.2
2022-09-12T05:33:25.872Z,12.3
2022-09-12T05:35:29.779Z,12.3
2022-09-12T05:37:33.683Z,12.4
2022-09-12T05:39:37.679Z,12.5
2022-09-12T05:41:41.536Z,12.6
2022-09-12T05:43:45.446Z,12.6
2022-09-12T05:45:49.421Z,12.6
2022-09-12T05:52:04.053Z,12.8
2022-09-12T05:54:31.308Z,12.9
2022-09-12T05:56:31.894Z,12.9
2022-09-12T05:58:35.828Z,13
2022-09-12T06:00:42.581Z,13.1
2022-09-12T06:02:46.479Z,13.1
2022-09-12T06:06:54.340Z,13.2
2022-09-12T06:08:58.255Z,13.3
2022-09-12T06:11:02.477Z,13.3
2022-09-12T06:13:06.099Z,13.3
2022-09-12T06:15:12.835Z,13.3
2022-09-12T06:17:16.777Z,13.3
2022-09-12T06:21:24.638Z,13.5
2022-09-12T06:27:36.397Z,13.6
2022-09-12T06:31:47.064Z,13.6
2022-09-12T06:33:51.017Z,13.7
2022-09-12T06:35:54.951Z,13.7
2022-09-12T06:40:02.868Z,13.7
2022-09-12T06:42:06.733Z,13.6
2022-09-12T06:44:13.514Z,13.7
2022-09-12T06:46:17.494Z,13.7
2022-09-12T06:48:21.338Z,13.8
2022-09-12T06:49:24.735Z,13.9
2022-09-12T06:51:28.661Z,14
2022-09-12T06:55:36.538Z,14.1
2022-09-12T06:57:43.273Z,14.2
2022-09-12T06:59:47.232Z,14.3
2022-09-12T07:01:51.183Z,14.3
2022-09-12T07:03:55.101Z,14.5
2022-09-12T07:05:59.009Z,14.5
2022-09-12T07:08:02.950Z,14.5
2022-09-12T07:10:06.901Z,14.7
2022-09-12T07:14:17.579Z,15
2022-09-12T07:16:21.563Z,15.3
2022-09-12T07:18:25.448Z,15.4
2022-09-12T07:20:29.383Z,15.5
2022-09-12T07:22:33.333Z,15.4
2022-09-12T07:24:37.265Z,15.3
2022-09-12T07:26:44.026Z,15.5
2022-09-12T07:28:47.976Z,15.5
2022-09-12T07:30:51.925Z,15.5
2022-09-12T07:32:55.875Z,15.5
2022-09-12T07:39:07.688Z,16
2022-09-12T07:41:14.438Z,16.3
2022-09-12T07:43:18.366Z,16.6
2022-09-12T07:45:22.316Z,17.1
2022-09-12T07:46:25.698Z,17.8
2022-09-12T07:54:44.252Z,21.3
2022-09-12T07:56:48.199Z,21.3
2022-09-12T07:58:52.125Z,19.9
2022-09-12T08:00:56.064Z,18.8
2022-09-12T08:03:00.020Z,18.2
2022-09-12T08:05:03.982Z,19.3
2022-09-12T08:07:07.913Z,20.6
2022-09-12T08:09:14.626Z,20.3
2022-09-12T08:11:18.560Z,20
2022-09-12T08:19:34.283Z,19.4
2022-09-12T08:21:38.204Z,19.5
2022-09-12T08:23:46.599Z,19.9
2022-09-12T08:27:54.551Z,20.4
2022-09-12T08:29:58.225Z,20.3
2022-09-12T08:34:06.050Z,19.6
2022-09-12T08:36:09.966Z,19.8
2022-09-12T08:38:16.736Z,20.2
2022-09-12T08:40:21.227Z,20.8
2022-09-12T08:42:25.104Z,21.4
2022-09-12T08:43:28.481Z,21.5
2022-09-12T08:45:32.369Z,21.3
2022-09-12T08:47:36.288Z,21.6
2022-09-12T08:49:40.184Z,21.7
2022-09-12T08:51:46.910Z,21.7
2022-09-12T08:53:50.816Z,21.9
2022-09-12T08:55:54.704Z,22.4
2022-09-12T08:57:58.602Z,23
2022-09-12T09:02:06.389Z,22.5
2022-09-12T09:04:10.235Z,22.7
2022-09-12T09:06:16.961Z,22.5
2022-09-12T09:08:20.836Z,22.5
2022-09-12T09:10:24.706Z,23.1
2022-09-12T09:12:28.564Z,23.5
2022-09-12T09:16:36.290Z,23.3
2022-09-12T09:18:40.233Z,23.3
2022-09-12T09:20:46.857Z,23.7
2022-09-12T09:22:50.725Z,24.4
2022-09-12T09:24:54.580Z,23.7
2022-09-12T09:26:58.422Z,23.7
2022-09-12T09:29:03.113Z,23.9
2022-09-12T09:31:07.038Z,24.1
2022-09-12T09:33:10.810Z,24.3
2022-09-12T09:35:17.494Z,24.7
2022-09-12T09:37:21.349Z,24.5
2022-09-12T09:39:25.353Z,24
2022-09-12T09:41:54.746Z,24.9
2022-09-12T09:43:58.622Z,25.1
2022-09-12T09:46:02.480Z,25.2
2022-09-12T09:56:24.430Z,25
2022-09-12T09:58:28.268Z,25.4
2022-09-12T10:00:32.111Z,26.2
2022-09-12T10:02:38.894Z,25.4
2022-09-12T10:04:42.624Z,25.6
2022-09-12T10:06:46.460Z,26.2
2022-09-12T10:08:50.264Z,26.5
2022-09-12T10:10:54.093Z,27.3
2022-09-12T10:12:57.924Z,27.4
2022-09-12T10:19:12.218Z,25.5
2022-09-12T10:21:16.021Z,25.4
2022-09-12T10:25:23.650Z,26
2022-09-12T10:35:45.527Z,25.8
2022-09-12T10:36:48.873Z,26.5
2022-09-12T10:38:52.654Z,26.9
2022-09-12T10:40:56.461Z,27.3
2022-09-12T10:43:00.251Z,26.2
2022-09-12T10:45:06.928Z,25.6
2022-09-12T10:49:14.497Z,26
2022-09-12T10:51:18.329Z,25.7
2022-09-12T10:53:22.110Z,25.8
2022-09-12T10:55:25.903Z,25.5
2022-09-12T11:03:43.926Z,27.2
2022-09-12T11:05:47.711Z,26.2
2022-09-12T11:09:55.303Z,26
2022-09-12T11:11:59.090Z,25.8
2022-09-12T11:14:05.734Z,25.8
2022-09-12T11:16:09.613Z,25.7
2022-09-12T11:18:13.292Z,26.6
2022-09-12T11:20:17.097Z,26.6
2022-09-12T11:22:20.875Z,26.6
2022-09-12T11:24:24.661Z,26
2022-09-12T11:26:29.295Z,26.5
2022-09-12T11:28:35.945Z,27.6
2022-09-12T11:30:39.814Z,27
2022-09-12T11:32:43.497Z,27
2022-09-12T11:37:54.403Z,27.3
2022-09-12T11:39:58.181Z,26.6
2022-09-12T11:42:04.834Z,28.6
2022-09-12T11:44:08.601Z,27.9
2022-09-12T11:46:12.399Z,27.5
2022-09-12T11:48:16.155Z,26.3
2022-09-12T11:50:19.918Z,26.6
2022-09-12T11:54:27.494Z,27
2022-09-12T11:56:34.142Z,29.6
2022-09-12T11:58:37.920Z,30.3
2022-09-12T12:02:45.549Z,30.4
2022-09-12T12:04:49.249Z,31
2022-09-12T12:06:53.027Z,30.9
2022-09-12T12:08:56.817Z,30.5
2022-09-12T12:11:03.432Z,28.7
2022-09-12T12:13:10.692Z,29.6
2022-09-12T12:15:10.973Z,31
2022-09-12T12:17:14.740Z,31.5
2022-09-12T12:19:18.496Z,31.3
2022-09-12T12:21:22.257Z,30.6
2022-09-12T12:23:26.039Z,30.6
2022-09-12T12:25:32.649Z,30
2022-09-12T12:27:36.405Z,29.5
2022-09-12T12:29:43.673Z,29.7
2022-09-12T12:32:47.219Z,29
2022-09-12T12:34:50.995Z,28.9
2022-09-12T12:36:54.757Z,28.4
2022-09-12T12:39:01.385Z,27.6
2022-09-12T12:41:05.129Z,27.1
2022-09-12T12:43:08.890Z,26.6
2022-09-12T12:45:12.651Z,25.8
2022-09-12T12:47:16.409Z,25.6
2022-09-12T12:51:23.953Z,26
2022-09-12T12:55:34.364Z,25.8
2022-09-12T12:57:38.147Z,25.8
2022-09-12T13:01:45.852Z,25.8
2022-09-12T13:07:59.996Z,25.8
2022-09-12T13:10:03.806Z,26.1
2022-09-12T13:12:07.625Z,26.3
2022-09-12T13:14:11.442Z,27.2
2022-09-12T13:16:15.301Z,27.9
2022-09-12T13:18:19.074Z,28.6
2022-09-12T13:24:33.376Z,27.1
2022-09-12T13:26:37.162Z,27.4
2022-09-12T13:29:06.796Z,28.1
2022-09-12T13:33:14.392Z,28.5
2022-09-12T13:35:21.093Z,29.5
2022-09-12T13:37:24.893Z,28.7
2022-09-12T13:41:32.511Z,27.9
2022-09-12T13:43:36.324Z,27.6
2022-09-12T13:49:50.635Z,29.1
2022-09-12T13:51:54.439Z,28.5
2022-09-12T13:53:58.223Z,27.6
2022-09-12T13:56:02.044Z,26.8
2022-09-12T14:02:13.500Z,26
2022-09-12T14:04:21.479Z,26.3
2022-09-12T14:06:23.985Z,26.2
2022-09-12T14:08:27.779Z,26.7
2022-09-12T14:10:31.608Z,26.8
2022-09-12T14:12:35.427Z,26.1
2022-09-12T14:14:39.226Z,26.1
2022-09-12T14:16:43.045Z,25.7
2022-09-12T14:18:51.239Z,25.9
2022-09-12T14:20:55.003Z,25.9
2022-09-12T14:22:58.808Z,25.6
2022-09-12T14:24:02.164Z,25.6
2022-09-12T14:26:05.960Z,25.4
2022-09-12T14:32:20.296Z,25.3
2022-09-12T14:38:31.753Z,25.4
2022-09-12T14:40:35.562Z,25.7
2022-09-12T14:42:39.409Z,26.3
2022-09-12T14:46:49.931Z,26.1
2022-09-12T14:48:53.745Z,25.8
2022-09-12T14:50:57.573Z,25.5
2022-09-12T14:53:01.393Z,25.3
2022-09-12T14:55:05.232Z,25.4
2022-09-12T14:57:09.074Z,25.5
2022-09-12T14:59:12.924Z,25.3
2022-09-12T15:01:19.634Z,24.9
2022-09-12T15:05:27.263Z,25
2022-09-12T15:11:38.805Z,25.5
2022-09-12T15:13:42.737Z,25.7
2022-09-12T15:15:49.370Z,25.3
2022-09-12T15:17:53.155Z,25.3
2022-09-12T15:19:57.012Z,25
2022-09-12T15:21:00.347Z,25.1
2022-09-12T15:23:04.194Z,25.1
2022-09-12T15:25:08.022Z,25.4
2022-09-12T15:27:11.858Z,25.4
2022-09-12T15:29:18.569Z,25.2
2022-09-12T15:31:22.567Z,25.3
2022-09-12T15:33:26.261Z,25.3
2022-09-12T15:45:52.197Z,25.2
2022-09-12T15:54:07.609Z,24.6
2022-09-12T16:02:25.927Z,24.3
2022-09-12T16:04:29.753Z,24.2
2022-09-12T16:06:37.032Z,24
2022-09-12T16:08:37.471Z,24
2022-09-12T16:10:41.343Z,24
2022-09-12T16:12:48.086Z,24
2022-09-12T16:14:51.946Z,23.9
2022-09-12T16:16:56.837Z,24
2022-09-12T16:17:59.173Z,24
2022-09-12T16:20:03.056Z,24.1
2022-09-12T16:22:06.931Z,24.2
2022-09-12T16:24:10.806Z,24.3
2022-09-12T16:26:17.521Z,24.3
2022-09-12T16:28:21.412Z,24.2
2022-09-12T16:30:25.291Z,24.1
2022-09-12T16:32:29.167Z,24
2022-09-12T16:34:33.045Z,24
2022-09-12T16:36:36.919Z,23.9
2022-09-12T16:38:40.793Z,23.9
2022-09-12T16:40:47.547Z,23.8
2022-09-12T16:42:51.414Z,23.8
2022-09-12T16:44:55.305Z,23.9
2022-09-12T16:46:59.187Z,23.7
2022-09-12T16:49:03.082Z,23.7
2022-09-12T16:51:06.991Z,23.7
2022-09-12T16:53:10.834Z,23.6
2022-09-12T16:55:17.577Z,23.5
2022-09-12T16:59:25.370Z,23.3
2022-09-12T17:01:29.271Z,23.2
2022-09-12T17:03:33.163Z,23.2
2022-09-12T17:05:37.000Z,23.1
2022-09-12T17:07:40.911Z,23
2022-09-12T17:09:48.056Z,23
2022-09-12T17:11:51.548Z,22.9
2022-09-12T17:14:05.507Z,22.9
2022-09-12T17:16:25.091Z,22.7
2022-09-12T17:18:29.019Z,22.7
2022-09-12T17:20:32.890Z,22.6
2022-09-12T17:22:39.647Z,22.5
2022-09-12T17:24:43.532Z,22.6
2022-09-12T17:26:47.465Z,22.4
2022-09-12T17:28:51.355Z,22.5
2022-09-12T17:30:55.317Z,22.4
2022-09-12T17:32:59.182Z,22.4
2022-09-12T17:35:03.074Z,22.3
2022-09-12T17:37:09.817Z,22.3
2022-09-12T17:39:13.810Z,22.3
2022-09-12T17:41:17.983Z,22.2
2022-09-12T17:43:21.564Z,22.2
2022-09-12T17:45:25.466Z,22.1
2022-09-12T17:47:29.398Z,22.1
2022-09-12T17:49:33.298Z,22.1
2022-09-12T17:51:40.044Z,22
2022-09-12T17:53:43.983Z,22
2022-09-12T17:55:51.445Z,22
2022-09-12T18:01:59.856Z,21.9
2022-09-12T18:06:10.301Z,21.9
2022-09-12T18:08:14.237Z,21.8
2022-09-12T18:10:18.121Z,21.8
2022-09-12T18:11:21.522Z,21.7
2022-09-12T18:13:25.441Z,21.6
2022-09-12T18:15:29.356Z,21.6
2022-09-12T18:17:33.277Z,21.5
2022-09-12T18:19:40.031Z,21.4
2022-09-12T18:21:43.959Z,21.4
2022-09-12T18:23:47.868Z,21.3
2022-09-12T18:25:51.797Z,21.2
2022-09-12T18:27:55.712Z,21.2
2022-09-12T18:34:10.732Z,21.3
2022-09-12T18:36:14.640Z,21.3
2022-09-12T18:38:18.577Z,21.2
2022-09-12T18:44:30.342Z,21.1
2022-09-12T18:46:34.341Z,21
2022-09-12T18:50:44.975Z,20.9
2022-09-12T18:52:48.906Z,20.9
2022-09-12T18:54:52.807Z,20.9
2022-09-12T18:56:56.744Z,20.8
2022-09-12T18:59:00.663Z,20.7
2022-09-12T19:01:04.671Z,20.6
2022-09-12T19:03:11.361Z,20.5
2022-09-12T19:06:40.706Z,20.5
2022-09-12T19:07:19.202Z,20.4
2022-09-12T19:13:22.127Z,20.2
2022-09-12T19:15:34.401Z,20.3
2022-09-12T19:16:41.129Z,20.2
2022-09-12T19:18:45.066Z,20.2
2022-09-12T19:20:48.985Z,20.2
2022-09-12T19:22:52.901Z,20.2
2022-09-12T19:27:00.793Z,20.2
2022-09-12T19:29:04.716Z,20.1
2022-09-12T19:31:11.562Z,20.1
2022-09-12T19:33:15.432Z,20
2022-09-12T19:35:19.385Z,19.9
2022-09-12T19:37:23.301Z,19.9
2022-09-12T19:39:27.221Z,20.1
2022-09-12T19:41:31.149Z,20
2022-09-12T19:43:35.099Z,20
2022-09-12T19:45:41.851Z,20
2022-09-12T19:47:45.799Z,20
2022-09-12T19:49:49.720Z,19.9
2022-09-12T19:51:53.635Z,19.9
2022-09-12T19:53:57.587Z,19.8
2022-09-12T19:56:01.509Z,19.7
2022-09-12T19:58:05.457Z,19.5
2022-09-12T20:04:20.162Z,19.3
2022-09-12T20:05:23.476Z,19.3
2022-09-12T20:07:27.412Z,19.2
2022-09-12T20:09:31.345Z,19.2
2022-09-12T20:11:36.204Z,19.2
2022-09-12T20:13:42.960Z,19.1
2022-09-12T20:15:48.463Z,19.1
2022-09-12T20:17:52.341Z,19.1
2022-09-12T20:19:56.281Z,19.1
2022-09-12T20:22:00.230Z,19.1
2022-09-12T20:24:04.153Z,19.1
2022-09-12T20:26:08.102Z,19.1
2022-09-12T20:28:14.875Z,19.2
2022-09-12T20:30:18.814Z,19.2
2022-09-12T20:32:22.758Z,19.2
2022-09-12T20:34:26.701Z,19.3
2022-09-12T20:40:38.538Z,19.3
2022-09-12T20:42:45.303Z,19.2
2022-09-12T20:44:49.225Z,19.2
2022-09-12T20:46:53.229Z,19.2
2022-09-12T20:48:57.118Z,19.3
2022-09-12T20:51:01.050Z,19.2
2022-09-12T20:53:05.011Z,19.1
2022-09-12T20:55:09.134Z,19
2022-09-12T20:59:19.653Z,18.8
2022-09-12T21:03:47.762Z,18.7
2022-09-12T21:05:51.600Z,18.6
2022-09-12T21:07:55.573Z,18.6
2022-09-12T21:10:02.315Z,18.6
2022-09-12T21:16:14.241Z,18.5
2022-09-12T21:18:18.093Z,18.5
2022-09-12T21:20:22.023Z,18.5
2022-09-12T21:24:32.752Z,18.5
2022-09-12T21:26:36.692Z,18.5
2022-09-12T21:28:40.629Z,18.4
2022-09-12T21:30:44.569Z,18.4
2022-09-12T21:32:48.504Z,18.4
2022-09-12T21:34:52.477Z,18.4
2022-09-12T21:36:56.385Z,18.4
2022-09-12T21:39:03.160Z,18.6
2022-09-12T21:41:07.113Z,18.7
2022-09-12T21:43:12.927Z,18.7
2022-09-12T21:45:15.008Z,18.6
2022-09-12T21:47:18.954Z,18.5
2022-09-12T21:49:22.889Z,18.5
2022-09-12T21:51:27.009Z,18.5
2022-09-12T21:53:33.629Z,18.5
2022-09-12T21:55:37.595Z,18.5
2022-09-12T21:57:41.532Z,18.6
2022-09-12T21:58:44.938Z,18.5
2022-09-12T22:00:49.002Z,18.6
2022-09-12T22:02:52.819Z,18.6
2022-09-12T22:04:56.767Z,18.6
2022-09-12T22:07:03.554Z,18.6
2022-09-12T22:09:07.515Z,18.6
2022-09-12T22:15:39.491Z,18.7
2022-09-12T22:17:23.299Z,18.6
2022-09-12T22:21:34.017Z,18.6
2022-09-12T22:23:37.967Z,18.5
2022-09-12T22:25:41.905Z,18.5
2022-09-12T22:27:45.865Z,18.5
2022-09-12T22:29:49.784Z,18.5
2022-09-12T22:31:53.761Z,18.5
2022-09-12T22:33:57.701Z,18.5
2022-09-12T22:36:04.479Z,18.5
2022-09-12T22:38:08.403Z,18.5
2022-09-12T22:40:12.419Z,18.6
2022-09-12T22:46:24.281Z,18.6
2022-09-12T22:48:28.164Z,18.6
2022-09-12T22:50:34.923Z,18.5
2022-09-12T22:52:38.878Z,18.5
2022-09-12T22:54:42.814Z,18.5
2022-09-12T22:57:50.170Z,18.5
2022-09-12T22:59:54.104Z,18.5
2022-09-12T23:01:58.064Z,18.5
2022-09-12T23:04:04.835Z,18.5
2022-09-12T23:06:08.767Z,18.5
2022-09-12T23:08:12.708Z,18.5
2022-09-12T23:10:16.676Z,18.5
2022-09-12T23:12:20.608Z,18.5
2022-09-12T23:16:28.668Z,18.5
2022-09-12T23:18:35.284Z,18.5
2022-09-12T23:20:39.212Z,18.5
2022-09-12T23:22:43.155Z,18.5
2022-09-12T23:24:47.129Z,18.5
2022-09-12T23:26:51.082Z,18.6
2022-09-12T23:28:55.029Z,18.6
2022-09-12T23:30:58.990Z,18.5
2022-09-12T23:35:09.703Z,18.5
2022-09-12T23:37:13.671Z,18.5
2022-09-12T23:39:17.619Z,18.5
2022-09-12T23:41:21.546Z,18.6
2022-09-12T23:43:25.499Z,18.6
2022-09-12T23:52:48.434Z,18.6
2022-09-12T23:54:52.204Z,18.6
2022-09-12T23:56:56.146Z,18.6
2022-09-12T23:59:00.123Z,18.6
